This is the latest recevied weather packets stored in our database for station/object OE-11099. If no packets are shown the sender has not sent any weather packets the latest 10 day(s).
| Time | Temp. | Humidity | Pressure | Rain* | Wind** | Luminosity | Snow |
|---|---|---|---|---|---|---|---|
| 1787756106 | 27.78° C | 47% | 1012.3 hPa | 0 mm | - | 386 W/m² | - |
| 1787755280 | 27.78° C | 46% | 1012.5 hPa | 0 mm | - | 452 W/m² | - |
| 1787754906 | 27.78° C | 47% | 1012.3 hPa | 0 mm | - | 399 W/m² | - |
| 1787754306 | 27.78° C | 48% | 1012.5 hPa | 0 mm | - | 419 W/m² | - |
| 1787753479 | 27.78° C | 47% | 1012.5 hPa | 0 mm | - | 372 W/m² | - |
| 1787753106 | 27.22° C | 47% | 1012.9 hPa | 0 mm | - | 352 W/m² | - |
| 1787752506 | 27.78° C | 47% | 1012.9 hPa | 0 mm | - | 339 W/m² | - |
| 1787751679 | 28.33° C | 47% | 1012.8 hPa | 0 mm | - | 419 W/m² | - |
| 1787751306 | 28.33° C | 46% | 1012.8 hPa | 0 mm | - | 525 W/m² | - |
| 1787749879 | 28.33° C | 48% | 1012.9 hPa | 0 mm | - | 585 W/m² | - |
| 1787749506 | 28.33° C | 44% | 1012.9 hPa | 0 mm | - | 539 W/m² | - |
| 1787748906 | 28.89° C | 43% | 1012.8 hPa | 0 mm | - | 652 W/m² | - |
| 1787748079 | 28.33° C | 45% | 1012.8 hPa | 0 mm | - | 618 W/m² | - |
| 1787747706 | 28.89° C | 44% | 1012.7 hPa | 0 mm | - | 725 W/m² | - |
| 1787747105 | 28.89° C | 46% | 1012.8 hPa | 0 mm | - | 738 W/m² | - |
| 1787746279 | 28.33° C | 44% | 1012.9 hPa | 0 mm | - | 758 W/m² | - |
| 1787745906 | 28.33° C | 45% | 1013 hPa | 0 mm | - | 738 W/m² | - |
| 1787745305 | 28.33° C | 41% | 1013.2 hPa | 0 mm | - | 751 W/m² | - |
| 1787744478 | 28.33° C | 41% | 1013.1 hPa | 0 mm | - | 738 W/m² | - |
| 1787744106 | 27.78° C | 45% | 1013.3 hPa | 0 mm | - | 738 W/m² | - |
| 1787743506 | 26.67° C | 45% | 1013.6 hPa | 0 mm | - | 738 W/m² | - |
| 1787742679 | 27.22° C | 45% | 1013.5 hPa | 0 mm | - | 665 W/m² | - |
| 1787742306 | 27.78° C | 46% | 1013.6 hPa | 0 mm | - | 711 W/m² | - |
| 1787741705 | 26.11° C | 48% | 1013.9 hPa | 0 mm | - | 745 W/m² | - |
| 1787740879 | 25.56° C | 48% | 1014.1 hPa | 0 mm | - | 731 W/m² | - |
* Rain latest hour (hover to see other rain measurements)
** Current wind speed in m/s (hover to see current wind gust speed)